createdAt,value
2017-08-15T07:07:57.676Z,22.35
2017-08-15T07:12:00.638Z,22.36
2017-08-15T07:17:35.125Z,22.29
2017-08-15T07:22:46.460Z,22.30
2017-08-15T07:25:30.967Z,22.35
2017-08-15T07:30:07.169Z,22.28
2017-08-15T07:44:21.571Z,22.81
2017-08-15T07:47:28.090Z,22.95
2017-08-15T07:53:10.536Z,22.94
2017-08-15T07:56:05.521Z,22.87
2017-08-15T07:59:00.655Z,22.81
2017-08-15T08:01:55.958Z,22.77
2017-08-15T08:09:33.770Z,22.84
2017-08-15T08:12:18.122Z,23.02
2017-08-15T08:15:12.497Z,23.09
2017-08-15T08:18:07.432Z,23.11
2017-08-15T08:23:06.956Z,23.10
2017-08-15T08:26:25.936Z,23.23
2017-08-15T08:29:35.632Z,23.32
2017-08-15T08:32:23.843Z,23.36
2017-08-15T08:35:19.019Z,23.42
2017-08-15T08:38:36.827Z,23.46
2017-08-15T08:41:25.374Z,23.51
2017-08-15T08:47:15.954Z,23.59
2017-08-15T08:50:11.280Z,23.62
2017-08-15T08:53:06.843Z,23.71
2017-08-15T08:56:02.173Z,23.78
2017-08-15T08:58:57.646Z,23.88
2017-08-15T09:01:53.143Z,23.96
2017-08-15T09:04:48.660Z,24.06
2017-08-15T09:07:44.255Z,24.19
2017-08-15T09:10:39.749Z,24.39
2017-08-15T09:13:35.395Z,24.61
2017-08-15T09:19:26.789Z,25.02
2017-08-15T09:28:14.014Z,25.64
2017-08-15T09:31:09.732Z,25.86
2017-08-15T09:34:05.551Z,26.01
2017-08-15T09:37:01.385Z,26.17
2017-08-15T09:39:57.299Z,26.36
2017-08-15T09:42:53.186Z,26.51
2017-08-15T09:48:44.858Z,26.76
2017-08-15T09:51:40.645Z,26.89
2017-08-15T09:54:36.306Z,27.07
2017-08-15T09:57:32.082Z,27.25
2017-08-15T10:00:27.898Z,27.41
2017-08-15T10:03:23.755Z,27.58
2017-08-15T10:06:19.568Z,27.64
2017-08-15T10:09:15.251Z,27.71
2017-08-15T10:12:11.047Z,27.74
2017-08-15T10:15:06.781Z,27.85
2017-08-15T10:18:02.472Z,27.93
2017-08-15T10:20:58.297Z,27.98
2017-08-15T10:23:54.185Z,28.06
2017-08-15T10:26:50.100Z,28.19
2017-08-15T10:29:46.007Z,28.34
2017-08-15T10:32:41.953Z,28.54
2017-08-15T10:35:37.915Z,28.85
2017-08-15T10:38:33.892Z,29.08
2017-08-15T10:41:29.617Z,29.13
2017-08-15T10:44:25.173Z,29.20
2017-08-15T10:47:20.725Z,29.19
2017-08-15T10:50:16.434Z,29.10
2017-08-15T10:53:11.892Z,28.96
2017-08-15T10:56:07.467Z,28.80
2017-08-15T10:59:02.940Z,28.63
2017-08-15T11:01:58.554Z,28.54
2017-08-15T11:04:54.098Z,28.44
2017-08-15T11:07:49.707Z,28.28
2017-08-15T11:10:45.202Z,28.11
2017-08-15T11:16:36.462Z,27.78
2017-08-15T11:19:31.850Z,27.63
2017-08-15T11:22:27.435Z,27.47
2017-08-15T11:25:23.121Z,27.37
2017-08-15T11:28:18.640Z,27.26
2017-08-15T11:31:14.134Z,27.13
2017-08-15T11:34:09.700Z,27.00
2017-08-15T11:37:05.144Z,26.88
2017-08-15T11:40:00.550Z,26.77
2017-08-15T11:42:56.103Z,26.69
2017-08-15T11:45:51.681Z,26.61
2017-08-15T11:48:48.196Z,26.51
2017-08-15T11:51:42.827Z,26.44
2017-08-15T11:54:38.434Z,26.38
2017-08-15T11:57:33.942Z,26.35
2017-08-15T12:00:29.454Z,26.32
2017-08-15T12:03:24.982Z,26.30
2017-08-15T12:06:20.559Z,26.26
2017-08-15T12:09:16.010Z,26.22
2017-08-15T12:12:11.541Z,26.20
2017-08-15T12:15:07.066Z,26.16
2017-08-15T12:18:02.601Z,26.15
2017-08-15T12:23:53.536Z,26.15
2017-08-15T12:26:49.000Z,26.15
2017-08-15T12:29:44.601Z,26.13
2017-08-15T12:32:40.071Z,26.13
2017-08-15T12:35:35.594Z,26.11
2017-08-15T12:38:31.020Z,26.11
2017-08-15T12:41:26.531Z,26.11
2017-08-15T12:44:21.962Z,26.11
2017-08-15T12:47:17.421Z,26.10
2017-08-15T12:50:12.830Z,26.09
2017-08-15T12:53:08.379Z,26.07
2017-08-15T12:56:03.851Z,26.06
2017-08-15T12:58:59.325Z,26.07
2017-08-15T13:01:54.820Z,26.07
2017-08-15T13:10:41.141Z,26.16
2017-08-15T13:16:32.146Z,26.20
2017-08-15T13:19:27.491Z,26.22
2017-08-15T13:22:23.019Z,26.22
2017-08-15T13:25:18.452Z,26.19
2017-08-15T13:28:13.789Z,26.18
2017-08-15T13:31:09.161Z,26.20
2017-08-15T13:34:04.617Z,26.21
2017-08-15T13:37:00.096Z,26.20
2017-08-15T13:39:55.470Z,26.19
2017-08-15T13:42:50.872Z,26.20
2017-08-15T13:45:46.253Z,26.21
2017-08-15T13:48:41.691Z,26.22
2017-08-15T13:51:37.216Z,26.23
2017-08-15T13:54:33.004Z,26.24
2017-08-15T13:57:28.438Z,26.28
2017-08-15T14:00:23.895Z,26.31
2017-08-15T14:03:19.220Z,26.32
2017-08-15T14:06:14.646Z,26.34
2017-08-15T14:12:05.632Z,26.37
2017-08-15T14:15:01.057Z,26.39
2017-08-15T14:17:56.524Z,26.43
2017-08-15T14:20:52.056Z,26.48
2017-08-15T14:23:47.495Z,26.52
2017-08-15T14:26:42.913Z,26.53
2017-08-15T14:29:38.376Z,26.53
2017-08-15T14:32:33.896Z,26.54
2017-08-15T14:35:29.375Z,26.55
2017-08-15T14:38:24.963Z,26.56
2017-08-15T14:41:20.311Z,26.57
2017-08-15T14:44:15.824Z,26.58
2017-08-15T14:47:11.252Z,26.57
2017-08-15T14:50:06.731Z,26.56
2017-08-15T14:53:02.271Z,26.57
2017-08-15T14:55:57.790Z,26.58
2017-08-15T14:58:53.172Z,26.56
2017-08-15T15:07:39.581Z,26.53
2017-08-15T15:10:35.004Z,26.54
2017-08-15T15:13:30.319Z,26.53
2017-08-15T15:16:25.789Z,26.49
2017-08-15T15:19:21.190Z,26.46
2017-08-15T15:22:16.952Z,26.43
2017-08-15T15:25:12.366Z,26.43
2017-08-15T15:28:07.801Z,26.45
2017-08-15T15:31:03.266Z,26.46
2017-08-15T15:33:58.717Z,26.46
2017-08-15T15:36:54.208Z,26.47
2017-08-15T15:39:49.629Z,26.47
2017-08-15T15:42:45.090Z,26.48
2017-08-15T15:45:40.606Z,26.50
2017-08-15T15:48:36.095Z,26.51
2017-08-15T15:51:31.591Z,26.51
2017-08-15T15:54:27.100Z,26.52
2017-08-15T15:57:22.623Z,26.52
2017-08-15T16:00:18.133Z,26.50
2017-08-15T16:03:13.524Z,26.50
2017-08-15T16:06:09.022Z,26.50
2017-08-15T16:09:04.497Z,26.52
2017-08-15T16:11:59.969Z,26.53
2017-08-15T16:14:55.474Z,26.54
2017-08-15T16:17:51.000Z,26.55
2017-08-15T16:20:46.481Z,26.55
2017-08-15T16:23:41.876Z,26.55
2017-08-15T16:26:37.328Z,26.58
2017-08-15T16:29:32.835Z,26.59
2017-08-15T16:32:28.186Z,26.60
2017-08-15T16:35:23.657Z,26.61
2017-08-15T16:38:19.143Z,26.61
2017-08-15T16:41:14.598Z,26.61
2017-08-15T16:44:10.040Z,26.60
2017-08-15T16:47:05.502Z,26.61
2017-08-15T16:50:00.921Z,26.61
2017-08-15T16:52:56.326Z,26.61
2017-08-15T16:55:51.782Z,26.60
2017-08-15T17:01:42.738Z,26.59
2017-08-15T17:04:38.222Z,26.57
2017-08-15T17:07:33.683Z,26.55
2017-08-15T17:10:29.178Z,26.51
2017-08-15T17:13:24.617Z,26.48
2017-08-15T17:16:20.132Z,26.45
2017-08-15T17:19:15.597Z,26.43
2017-08-15T17:22:11.066Z,26.40
2017-08-15T17:25:06.604Z,26.37
2017-08-15T17:28:01.853Z,26.34
2017-08-15T17:30:57.198Z,26.32
2017-08-15T17:33:52.691Z,26.29
2017-08-15T17:36:48.078Z,26.26
2017-08-15T17:39:43.558Z,26.25
2017-08-15T17:42:38.983Z,26.22
2017-08-15T17:45:34.307Z,26.19
2017-08-15T17:48:29.780Z,26.15
2017-08-15T17:54:20.494Z,26.09
2017-08-15T17:57:15.868Z,26.06
2017-08-15T18:03:06.733Z,26.01
2017-08-15T18:06:02.134Z,25.99
2017-08-15T18:08:57.542Z,25.97
2017-08-15T18:11:52.998Z,25.95
2017-08-15T18:14:48.380Z,25.93
2017-08-15T18:17:43.778Z,25.90
2017-08-15T18:20:39.256Z,25.88
2017-08-15T18:26:29.977Z,25.82
2017-08-15T18:32:20.539Z,25.78
2017-08-15T18:35:15.910Z,25.76
2017-08-15T18:38:11.305Z,25.74
2017-08-15T18:41:06.711Z,25.72
2017-08-15T18:44:02.084Z,25.70
2017-08-15T18:46:57.494Z,25.67
2017-08-15T18:49:52.927Z,25.66
2017-08-15T18:52:48.035Z,25.63
2017-08-15T18:55:43.307Z,25.60
2017-08-15T18:58:38.684Z,25.57
2017-08-15T19:01:34.100Z,25.54
2017-08-15T19:04:29.357Z,25.50
2017-08-15T19:07:24.620Z,25.47
2017-08-15T19:10:19.900Z,25.44
2017-08-15T19:13:15.289Z,25.42
2017-08-15T19:16:10.533Z,25.39
2017-08-15T19:19:05.999Z,25.37
2017-08-15T19:22:01.350Z,25.35
2017-08-15T19:24:56.745Z,25.33
2017-08-15T19:27:52.198Z,25.30
2017-08-15T19:30:47.613Z,25.28
2017-08-15T19:33:42.960Z,25.26
2017-08-15T19:36:38.390Z,25.24
2017-08-15T19:42:29.128Z,25.18
2017-08-15T19:45:24.342Z,25.16
2017-08-15T19:48:19.812Z,25.15
2017-08-15T19:51:15.152Z,25.13
2017-08-15T19:54:10.634Z,25.11
2017-08-15T19:57:05.862Z,25.09
2017-08-15T20:00:01.279Z,25.07
2017-08-15T20:02:56.755Z,25.05
2017-08-15T20:05:52.167Z,25.03
2017-08-15T20:08:47.607Z,25.00
2017-08-15T20:11:42.938Z,24.98
2017-08-15T20:14:38.243Z,24.95
2017-08-15T20:17:33.972Z,24.92
2017-08-15T20:20:29.314Z,24.88
2017-08-15T20:23:24.642Z,24.85
2017-08-15T20:26:21.048Z,24.82
2017-08-15T20:29:15.335Z,24.79
2017-08-15T20:35:06.056Z,24.73
2017-08-15T20:38:01.429Z,24.70
2017-08-15T20:40:56.763Z,24.66
2017-08-15T20:43:52.183Z,24.63
2017-08-15T20:46:47.426Z,24.59
2017-08-15T20:49:42.861Z,24.55
2017-08-15T20:55:33.607Z,24.49
2017-08-15T20:58:29.112Z,24.46
2017-08-15T21:01:24.291Z,24.43
2017-08-15T21:04:19.577Z,24.39
2017-08-15T21:07:14.835Z,24.36
2017-08-15T21:10:10.237Z,24.32
2017-08-15T21:13:05.513Z,24.30
2017-08-15T21:16:00.694Z,24.27
2017-08-15T21:18:55.973Z,24.24
2017-08-15T21:21:51.381Z,24.21
2017-08-15T21:24:46.666Z,24.19
2017-08-15T21:27:42.036Z,24.18
2017-08-15T21:30:37.327Z,24.17
2017-08-15T21:34:06.644Z,24.16
2017-08-15T21:36:54.002Z,24.19
2017-08-15T21:39:49.150Z,24.20
2017-08-15T21:42:44.432Z,24.20
2017-08-15T21:45:39.713Z,24.20
2017-08-15T21:48:35.023Z,24.19
2017-08-15T21:51:41.817Z,24.18
2017-08-15T21:54:32.398Z,24.19
2017-08-15T21:57:27.867Z,24.19
2017-08-15T22:00:23.073Z,24.18
2017-08-15T22:03:18.514Z,24.17
2017-08-15T22:06:13.932Z,24.16
2017-08-15T22:09:09.276Z,24.15
2017-08-15T22:12:16.199Z,24.15
2017-08-15T22:15:06.824Z,24.15
2017-08-15T22:18:02.135Z,24.15
2017-08-15T22:20:57.383Z,24.14
2017-08-15T22:23:52.750Z,24.14
2017-08-15T22:26:48.296Z,24.13
2017-08-15T22:29:43.575Z,24.13
2017-08-15T22:32:38.985Z,24.12
2017-08-15T22:35:34.332Z,24.11
2017-08-15T22:38:29.600Z,24.11
2017-08-15T22:41:24.989Z,24.10
2017-08-15T22:44:20.400Z,24.08
2017-08-15T22:47:15.878Z,24.08
2017-08-15T22:50:11.317Z,24.07
2017-08-15T22:53:06.764Z,24.06
2017-08-15T22:56:02.039Z,24.04
2017-08-15T22:58:57.511Z,24.03
2017-08-15T23:04:48.449Z,24.00
2017-08-15T23:07:43.599Z,23.98
2017-08-15T23:13:34.399Z,23.97
2017-08-15T23:16:29.703Z,23.95
2017-08-15T23:19:24.968Z,23.95
2017-08-15T23:25:15.784Z,23.93
2017-08-15T23:31:06.580Z,23.92
2017-08-15T23:34:01.859Z,23.92
2017-08-15T23:36:57.309Z,23.92
2017-08-15T23:39:52.616Z,23.92
2017-08-15T23:42:47.976Z,23.91
2017-08-15T23:45:43.277Z,23.90
2017-08-15T23:48:38.584Z,23.90
2017-08-15T23:52:52.984Z,23.88
2017-08-15T23:55:50.017Z,23.95
2017-08-15T23:58:40.270Z,23.98
